Details From UDYZ - Zvartnots
To TNCM - St Maarten - Princess Juliana Intl
Flight Number -
Tags Generated
Created
Modified
Stats Distance 5,470 nm / 10,131 km
Max Altitude 0 ft / 0 m
Waypoints 10
Social Downloads 0
Likes 0
Share VATSIM

Download

Looking for another format? Having issues loading an existing format? Contact us
Advertisement - Login to hide

Notes

Generated

Route

UDYZ ADINA TIMEX DAK AMBUS LUSIL LSE17 CY404 MNOLO TNCM

ID Type Via Altitude Latitude Longitude Leg Dist Tot Dist Heading (true) Name
O UDYZ APT - 0 ft / 0 m 40.14715˚ 44.37329˚ - 0 nm - -
ADINA FIX - 0 ft / 0 m 43.80300˚ 30.50343˚ 656 nm 656 nm 294° / 285° -
TIMEX FIX - 0 ft / 0 m 44.67307˚ 25.95589˚ 202 nm 858 nm 287° / 283° -
DAK NDB - 0 ft / 0 m 45.42083˚ 20.42750˚ 238 nm 1097 nm 283° / 279° -
AMBUS FIX - 0 ft / 0 m 45.88870˚ 14.85496˚ 235 nm 1332 nm 279° / 275° -
LUSIL FIX - 0 ft / 0 m 46.04306˚ 10.11667˚ 197 nm 1530 nm 274° / 271° -
LSE17 FIX - 0 ft / 0 m 45.99445˚ 5.30550˚ 200 nm 1731 nm 271° / 267° -
CY404 FIX - 0 ft / 0 m 45.66444˚ -0.72953˚ 253 nm 1984 nm 268° / 263° -
MNOLO FIX - 0 ft / 0 m 18.34556˚ -62.80211˚ 3459 nm 5444 nm 263° / 227° -
O TNCM APT - 0 ft / 0 m 18.03937˚ -63.11961˚ 25 nm 5470 nm 225° / 225° -

Altitude Profile

Advertisement - Login to hide

Weather


0- 5 10 15 20 25 30 35+ Temperature / ° C

Clouds and Precipitation
Forecast for 2017-12-16 00:00 UTC. Updated an hour ago

Ground ~20,000 ft ~40,000 ft Winds

UDYZ

Details ICAO UDYZ (EVN)
Name ZVARTNOTS
Region Armenia
Timezone Asia/Yerevan (UTC+4.0)
Stats Elevation 2,838 ft / 865 m (AMSL)
Location 40.147271° 44.395880°
Runways 1
Magnetic Variation 6.201° E

METAR

UDYZ 160000Z 02001KT 2300 BR NSC M06/M07 Q1024 R09/000070 NOSIG

Decode

TAF

TAF UDYZ 151708Z 1518/1618 04006KT 2000 BR NSC TEMPO 1521/1606 0600 FZFG VV002

Decode

Departure Runways

ID Width Length Bearing (true) Bearing (mag) Surface Threshold Offset Overrun Length
09 184 ft / 56 m 12,601 ft / 3,841 m 89.59° 83.39° Asphalt 0 ft / 0 m 0 ft / 0 m
27 184 ft / 56 m 12,601 ft / 3,841 m 269.62° 263.42° Asphalt 0 ft / 0 m 0 ft / 0 m

TNCM

Details ICAO TNCM (SXM)
Name St Maarten - Princess Juliana Intl
Region Caribbean Netherlands, Aruba, Curaçao, Sint Maarten
Timezone Unknown (UTC+0.0)
Stats Elevation 12 ft / 4 m (AMSL)
Location 18.040889° -63.108974°
Runways 1
Magnetic Variation 14.325° W

METAR

TNCM 160000Z 06009KT 020V090 9999 FEW022 SCT045 26/21 Q1018 NOSIG RMK A3006

Decode

TAF

TAF TNCM 152320Z 1600/1624 06010KT P6SM SCT022 FM161200 05017KT P6SM SCT018 SCT040 FM162300 06011KT P6SM FEW022

Decode

Destination Runways

ID Width Length Bearing (true) Bearing (mag) Surface Threshold Offset Overrun Length
10 148 ft / 45 m 7,464 ft / 2,275 m 81.43° 95.76° Asphalt 0 ft / 0 m 151 ft / 46 m
28 148 ft / 45 m 7,464 ft / 2,275 m 261.44° 275.77° Asphalt 397 ft / 121 m 0 ft / 0 m

Popular Alternatives